Allenhurst, Georgia
Current Conditions -  °F | °C
As of 10:58 AM on Friday 19 Dec 2014 (Local Time) from KLHW Reporting Station
Few Clouds Few Clouds  
Wind Chill: 56°   Ceiling: Unl
Heat Index: 56°   Visibility: 10mi
Dew Point: 40°   Wind: 5mph
Humidity: 55%   Direction: 350°N
Pressure: 30.14"   Gusts: NA
Location:  31.78°N, 81.61°W
Report Text: KLHW 191558Z AUTO 35004KT 10SM FEW210 13/05 A3014 RMK AO2 SLP209 T01340046
Loading
Personal Weather Stations






























Interactive Weather Map New forecast layout! Learn more

10-Day Weather Forecast

Advertisements
Track Severe Weather on mobile